Nearby METAR Reports

 

ENRY - Rygge (nor-Afb), Norway
Distance from station: SØ 12km
Oppdatert: 21/09/2019 15:50
Klart
Klart
 Vind fra SSV
Vind: SSV 15 km/h
Temperatur: 19°C
Duggpunkt: 7°C
Fuktighet: 46%
Barometer: 1017 hPa
Oversikt: Klart
Visibility: greater than 10 km
2019/09/21 13:50 ENRY 211350Z 20008KT CAVOK 19/07 Q1017
ENTO - Torp (civ/Nor-Af, Norway
Distance from station: SV 34km
Oppdatert: 21/09/2019 15:50
Klart
Klart
 Vind fra S
Vind: S 17 km/h
Temperatur: 19°C
Duggpunkt: 10°C
Fuktighet: 56%
Barometer: 1017 hPa
Oversikt: Klart
Visibility: greater than 10 km
2019/09/21 13:50 ENTO 211350Z 17009KT CAVOK 19/10 Q1017 NOSIG
 
ENNO - Notodden, Norway
Distance from station: V 80km
Oppdatert: 21/09/2019 15:50
Klart
Klart
 Vind fra calm
Vind: Stille
Temperatur: 24°C
Duggpunkt: 10°C
Fuktighet: 41%
Barometer: 1016 hPa
Oversikt: Klart
Visibility: greater than 10 km
2019/09/21 13:50 ENNO 211350Z 00000KT CAVOK 24/10 Q1016
ENGM - Oslo/Gardermoen, Norway
Distance from station: NNØ 88km
Oppdatert: 21/09/2019 15:50
Klart
Klart
 Vind fra SV
Vind: SV 9 km/h
Temperatur: 23°C
Duggpunkt: 7°C
Fuktighet: 36%
Barometer: 1016 hPa
Oversikt: Klart
Visibility: greater than 10 km
2019/09/21 13:50 ENGM 211350Z 23005KT CAVOK 23/07 Q1016 NOSIG
 
ESOK - Karlstad North, Sweden
Distance from station: Ø 153km
Oppdatert: 21/09/2019 15:50
Klart
Klart
 Vind fra VNV
Vind: VNV 7 km/h
Temperatur: 22°C
Duggpunkt: 7°C
Fuktighet: 38%
Barometer: 1016 hPa
Clouds: Klart
Visibility: 10 km
2019/09/21 13:50 ESOK 211350Z AUTO 29004KT 9999 NCD 22/07 Q1016
ESST - Torsby, Sweden
Distance from station: ØNØ 154km
Oppdatert: 21/09/2019 15:50
Klart
Klart
 Vind fra SØ
Vind: SØ 9 km/h
Temperatur: 20°C
Duggpunkt: 9°C
Fuktighet: 49%
Barometer: 1016 hPa
Clouds: Klart
Visibility: 4 km
2019/09/21 13:50 ESST 211350Z AUTO 13005KT 100V160 4200 NCD 20/09 Q1016
 
ESGT - Trollhattan (pvt, Sweden
Distance from station: SØ 159km
Oppdatert: 21/09/2019 15:50
Klart
Klart
 Vind fra SV
Vind: SV 19 km/h
Temperatur: 21°C
Duggpunkt: 11°C
Fuktighet: 53%
Barometer: 1018 hPa
Clouds: Klart
Visibility: 10 km
2019/09/21 13:50 ESGT 211350Z AUTO 23010KT 9999 NCD 21/11 Q1018 RERA
ESIB - Satenas (swe-Afb, Sweden
Distance from station: SØ 164km
Oppdatert: 21/09/2019 15:50
Klart
Klart
 Vind fra VSV
Vind: VSV 15 km/h
Temperatur: 21°C
Duggpunkt: 13°C
Fuktighet: 60%
Barometer: 1017 hPa
Clouds: Klart
Visibility: 10 km
2019/09/21 13:50 ESIB 211350Z AUTO 25008KT 9999 NCD 21/13 Q1017
 
ENCN - Kristiansand/Kje, Norway
Distance from station: SV 202km
Oppdatert: 21/09/2019 15:50
Klart
Klart
 Vind fra SSV
Vind: SSV 13 km/h
Temperatur: 19°C
Duggpunkt: 11°C
Fuktighet: 60%
Barometer: 1018 hPa
Oversikt: Klart
Visibility: greater than 10 km
2019/09/21 13:50 ENCN 211350Z 21007KT CAVOK 19/11 Q1018
EKSN - Sindal Airport, Denmark
Distance from station: S 217km
Oppdatert: 20/09/2019 15:50
NOT Current
Hovedsaklig skyet
Hovedsaklig skyet
 Vind fra V
Vind: V 33 km/h
Temperatur: 15°C
Duggpunkt: 12°C
Fuktighet: 82%
Barometer: 1021 hPa
Clouds: Hovedsaklig skyet
Visibility: 10 km
Cloud details: Hovedsaklig skyet 457 m
2019/09/20 13:50 EKSN 201350Z 26018KT 9999 BKN015 15/12 Q1021
 
ESGG - Goteborg/Landvet, Sweden
Distance from station: SSØ 220km
Oppdatert: 21/09/2019 15:50
Klart
Klart
 Vind fra SV
Vind: SV 17 km/h
Temperatur: 18°C
Duggpunkt: 9°C
Fuktighet: 56%
Barometer: 1019 hPa
Oversikt: Klart
Visibility: greater than 10 km
2019/09/21 13:50 ESGG 211350Z 23009KT CAVOK 18/09 Q1019
ESGR - Skovde Airport, Sweden
Distance from station: ØSØ 221km
Oppdatert: 21/09/2019 15:50
Klart
Klart
 Vind fra V
Vind: V 9 km/h
Temperatur: 21°C
Duggpunkt: 5°C
Fuktighet: 35%
Barometer: 1017 hPa
Clouds: Klart
Visibility: 10 km
2019/09/21 13:50 ESGR 211350Z AUTO 28005KT 240V320 9999 NCD 21/05 Q1017
 
ESOE - Orebro (private), Sweden
Distance from station: Ø 252km
Oppdatert: 21/09/2019 15:50
Klart
Klart
 Vind fra VSV
Vind: VSV 11 km/h
Temperatur: 22°C
Duggpunkt: 8°C
Fuktighet: 41%
Barometer: 1016 hPa
Clouds: Klart
Visibility: 10 km
2019/09/21 13:50 ESOE 211350Z AUTO 25006KT 230V320 9999 NCD 22/08 Q1016
EKYT - Alborg, Denmark
Distance from station: S 264km
Oppdatert: 21/09/2019 15:50
Klart
Klart
 Vind fra VSV
Vind: VSV 19 km/h
Temperatur: 18°C
Duggpunkt: 14°C
Fuktighet: 78%
Barometer: 1019 hPa
Clouds: Klart
Visibility: 10 km
2019/09/21 13:50 EKYT 211350Z AUTO 25010KT 9999 NCD 18/14 Q1019
 
ENSG - Sogndal/Haukasen, Norway
Distance from station: NV 269km
Oppdatert: 21/09/2019 13:50
NOT Current
Klart
Klart
 Vind fra Ø
Vind: Ø 11 km/h
Temperatur: 11°C
Duggpunkt: 7°C
Fuktighet: 77%
Barometer: 1021 hPa
Oversikt: Klart
Visibility: greater than 10 km
2019/09/21 11:50 ENSG 211150Z 08006KT CAVOK 11/07 Q1021 RMK WIND 3806FT 26009KT
ESGJ - Jonkoping Airpor, Sweden
Distance from station: SØ 273km
Oppdatert: 21/09/2019 15:50
Klart
Klart
 Vind fra VNV
Vind: VNV 9 km/h
Temperatur: 22°C
Duggpunkt: 9°C
Fuktighet: 44%
Barometer: 1018 hPa
Clouds: Klart
Visibility: 10 km
2019/09/21 13:50 ESGJ 211350Z AUTO 29005KT 270V340 9999 NCD 22/09 Q1018
 
ENZV - Stavanger/Sola(A, Norway
Distance from station: V 292km
Oppdatert: 21/09/2019 15:50
Klart
Klart
 Vind fra V
Vind: V 13 km/h
Temperatur: 18°C
Duggpunkt: 13°C
Fuktighet: 73%
Barometer: 1019 hPa
Oversikt: Klart
Visibility: greater than 10 km
2019/09/21 13:50 ENZV 211350Z 28007KT CAVOK 18/13 Q1019 NOSIG
ESSD - Borlange (swe-Af, Sweden
Distance from station: ØNØ 292km
Oppdatert: 21/09/2019 15:50
Klart
Klart
 Vind fra NV
Vind: NV 20 km/h
Temperatur: 18°C
Duggpunkt: 7°C
Fuktighet: 49%
Barometer: 1015 hPa
Clouds: Klart
Visibility: 10 km
2019/09/21 13:50 ESSD 211350Z AUTO 31011KT 9999 NCD 18/07 Q1015
 
ENSO - Stord/Soerstokke, Norway
Distance from station: V 300km
Oppdatert: 20/09/2019 19:50
NOT Current
Delvis skyet
Delvis skyet
 Vind fra varies
Vind: varies 4 km/h
Temperatur: 11°C
Duggpunkt: 10°C
Fuktighet: 94%
Barometer: 1024 hPa
Clouds: Delvis skyet
Visibility: 10 km
Cloud details: Delvis skyet 671 m
2019/09/20 17:50 ENSO 201750Z VRB02KT 9999 SCT022 11/10 Q1024
ESCF - Linkoping/Malmen, Sweden
Distance from station: ØSØ 305km
Oppdatert: 21/09/2019 15:50
Klart
Klart
 Vind fra V
Vind: V 19 km/h
Temperatur: 19°C
Duggpunkt: 9°C
Fuktighet: 52%
Barometer: 1017 hPa
Clouds: Klart
Visibility: 10 km
2019/09/21 13:50 ESCF 211350Z AUTO 27010KT 9999 NCD 19/09 Q1017